Terminal Aerodrome Forecast
Issued by NWS North Platte, NE

Home | Current Version | Previous Version | Text Only | Print | Product List | Glossary On
Versions: 1 2 3 4 5 6 7 8 9 10 11 12 13 14 15 16
000
FTUS43 KLBF 221100
TAFLBF
TAF
KLBF 221120Z 2212/2312 12006KT P6SM BKN100
     FM221600 17014G20KT P6SM OVC100
     FM222000 16017G26KT P6SM OVC070
      TEMPO 2221/2224 3SM +TSRA OVC035CB
     FM230000 15014KT P6SM -SHRA OVC050
     FM230300 13010KT P6SM OVC070=

USA.gov is the U.S. government's official web portal to all federal, state and local government web resources and services.